Time;durP1;ratioP1;P1;durP2;ratioP2;P2;SDS_P1;SDS_P2;PMS_P1;PMS_P2;Temp;Humidity;BMP_temperature;BMP_pressure;BME280_temperature;BME280_humidity;BME280_pressure;Samples;Min_cycle;Max_cycle;Signal;HPM_P1;HPM_P2
2022/05/13 00:00:05;;;;;;;5.53;5.00;;;;;;;14.87;66.31;97395.41;5121219;27;20166;-86
2022/05/13 00:02:36;;;;;;;7.87;5.20;;;;;;;15.15;65.96;97416.34;5136336;27;20194;-87
2022/05/13 00:05:06;;;;;;;6.33;4.83;;;;;;;15.14;65.50;97396.44;5119327;28;20199;-88
2022/05/13 00:07:36;;;;;;;6.20;5.47;;;;;;;15.42;64.90;97418.25;5134749;27;20215;-86
2022/05/13 00:10:07;;;;;;;6.57;5.43;;;;;;;15.55;63.79;97422.72;5084396;28;20188;-91
2022/05/13 00:12:43;;;;;;;7.80;5.90;;;;;;;15.18;64.92;97401.38;5115061;28;20679;-95
2022/05/13 00:15:14;;;;;;;10.13;6.90;;;;;;;15.18;65.25;97419.66;5084701;28;20245;-89
2022/05/13 00:17:42;;;;;;;7.97;5.97;;;;;;;14.94;66.51;97409.78;5120343;28;20700;-96
2022/05/13 00:20:11;;;;;;;6.77;5.57;;;;;;;14.85;67.03;97405.94;5117733;28;20187;-89
2022/05/13 00:22:52;;;;;;;5.87;5.23;;;;;;;14.95;66.41;97412.28;5102545;28;20280;-88
2022/05/13 00:25:22;;;;;;;7.03;5.40;;;;;;;14.92;65.61;97394.19;5117790;28;20213;-84
2022/05/13 00:27:51;;;;;;;7.20;6.00;;;;;;;14.89;66.05;97406.59;5114414;28;20274;-85
2022/05/13 00:30:18;;;;;;;7.37;5.80;;;;;;;14.41;66.92;97369.31;5113110;28;20188;-87
2022/05/13 00:32:47;;;;;;;6.83;6.07;;;;;;;14.31;67.49;97383.78;5129259;28;20195;-87
2022/05/13 00:35:16;;;;;;;8.53;6.07;;;;;;;14.46;67.61;97409.00;5126231;28;20221;-89
2022/05/13 00:37:44;;;;;;;7.93;6.20;;;;;;;14.15;68.05;97379.47;5094707;28;20207;-84
2022/05/13 00:40:14;;;;;;;8.53;6.13;;;;;;;14.20;68.18;97393.91;5135279;28;20176;-94
2022/05/13 00:42:41;;;;;;;6.30;5.70;;;;;;;14.35;68.09;97419.16;5110554;28;20213;-88
2022/05/13 00:45:13;;;;;;;8.80;6.40;;;;;;;14.13;68.92;97404.75;5132493;28;20205;-85
2022/05/13 00:47:41;;;;;;;7.90;6.37;;;;;;;14.08;69.17;97391.97;5131029;28;20192;-90
2022/05/13 00:50:10;;;;;;;11.43;6.17;;;;;;;14.32;68.60;97418.50;5128250;28;20253;-88
2022/05/13 00:52:42;;;;;;;7.53;5.90;;;;;;;14.21;68.64;97408.63;5100660;28;20194;-86
2022/05/13 00:55:14;;;;;;;7.53;5.80;;;;;;;14.12;68.29;97372.66;5093550;28;20690;-94
2022/05/13 00:57:41;;;;;;;7.93;5.60;;;;;;;14.24;68.82;97408.44;5113117;28;20219;-94
2022/05/13 01:00:12;;;;;;;6.73;5.47;;;;;;;14.22;69.60;97410.28;5099174;28;20209;-92
2022/05/13 01:02:43;;;;;;;6.50;5.87;;;;;;;14.01;69.60;97379.38;5120267;28;20203;-93
2022/05/13 01:05:13;;;;;;;8.33;5.23;;;;;;;14.05;70.14;97394.75;5130348;28;20205;-86
2022/05/13 01:07:41;;;;;;;6.13;5.53;;;;;;;14.10;69.71;97408.34;5115620;28;20190;-91
2022/05/13 01:10:15;;;;;;;6.57;5.73;;;;;;;14.13;69.76;97413.41;5129038;28;20187;-87
2022/05/13 01:12:49;;;;;;;6.40;5.80;;;;;;;14.01;69.88;97398.44;5140363;27;20246;-88
2022/05/13 01:15:20;;;;;;;6.80;6.10;;;;;;;13.92;69.72;97395.47;5140925;27;20177;-85
2022/05/13 01:18:06;;;;;;;8.37;6.63;;;;;;;14.07;69.96;97416.34;5139850;27;21321;-89
2022/05/13 01:20:50;;;;;;;7.50;6.27;;;;;;;14.09;69.63;97414.50;5124012;27;20555;-87
2022/05/13 01:23:22;;;;;;;8.33;6.20;;;;;;;14.10;69.25;97410.97;5127075;28;20215;-94
2022/05/13 01:26:03;;;;;;;6.67;5.97;;;;;;;14.24;68.88;97413.66;5120782;28;20176;-92
2022/05/13 01:28:34;;;;;;;7.67;5.43;;;;;;;13.58;69.32;97308.78;5100944;28;20240;-96
2022/05/13 01:31:07;;;;;;;6.87;5.70;;;;;;;14.18;68.71;97403.56;5118273;28;20686;-93
2022/05/13 01:33:36;;;;;;;6.43;5.77;;;;;;;14.02;69.29;97376.69;5122935;28;20214;-92
2022/05/13 01:36:09;;;;;;;11.23;5.53;;;;;;;13.91;68.63;97381.63;5122780;28;20626;-93
2022/05/13 01:38:38;;;;;;;8.20;5.47;;;;;;;14.00;69.23;97401.13;5121288;28;20224;-85
2022/05/13 01:41:09;;;;;;;9.30;6.23;;;;;;;13.67;69.57;97378.56;5113500;28;20383;-91
2022/05/13 01:43:38;;;;;;;6.63;5.93;;;;;;;13.42;70.32;97348.69;5130022;28;20188;-91
2022/05/13 01:46:05;;;;;;;6.33;5.77;;;;;;;13.48;70.53;97388.25;5135328;28;20218;-96
2022/05/13 01:48:34;;;;;;;7.90;5.70;;;;;;;13.76;70.50;97400.66;5129946;28;20452;-91
2022/05/13 01:51:04;;;;;;;6.97;5.97;;;;;;;13.84;69.32;97377.66;5110912;28;20192;-85
2022/05/13 01:53:31;;;;;;;7.53;6.80;;;;;;;14.03;68.79;97360.16;5140231;28;20207;-84
2022/05/13 01:56:01;;;;;;;7.40;6.07;;;;;;;14.36;67.79;97379.16;5121699;28;20199;-85
2022/05/13 01:58:33;;;;;;;6.47;5.77;;;;;;;14.43;67.40;97364.88;5139582;28;20179;-84
2022/05/13 02:01:04;;;;;;;6.33;5.70;;;;;;;14.57;66.98;97392.75;5135309;28;20288;-88
2022/05/13 02:03:46;;;;;;;6.70;5.90;;;;;;;14.57;67.42;97384.94;5138227;28;20176;-87
2022/05/13 02:06:14;;;;;;;7.57;6.13;;;;;;;14.91;65.70;97389.09;5137584;27;20188;-89
2022/05/13 02:08:42;;;;;;;6.40;5.70;;;;;;;14.68;65.91;97346.91;5135315;28;20184;-93
2022/05/13 02:11:11;;;;;;;7.33;5.77;;;;;;;14.84;66.05;97388.59;5106648;28;20230;-95
2022/05/13 02:13:38;;;;;;;6.90;5.77;;;;;;;14.55;66.35;97351.13;5132699;28;20187;-90
2022/05/13 02:16:05;;;;;;;6.53;5.73;;;;;;;14.22;66.95;97333.94;5102678;28;20216;-91
2022/05/13 02:18:33;;;;;;;6.97;5.67;;;;;;;14.36;67.70;97392.16;5127767;28;20195;-88
2022/05/13 02:21:02;;;;;;;8.23;6.30;;;;;;;14.12;68.69;97390.88;5119895;28;20254;-94
2022/05/13 02:23:30;;;;;;;6.97;6.27;;;;;;;13.64;69.01;97318.84;5132642;28;20793;-87
2022/05/13 02:26:00;;;;;;;7.27;5.63;;;;;;;14.06;68.54;97356.50;5136557;27;20214;-86
2022/05/13 02:28:31;;;;;;;7.40;6.00;;;;;;;14.08;69.35;97360.72;5120730;28;20234;-86
2022/05/13 02:31:02;;;;;;;7.03;6.13;;;;;;;14.14;69.02;97381.22;5120008;28;20226;-90
2022/05/13 02:33:30;;;;;;;7.80;6.40;;;;;;;13.97;70.10;97367.44;5132568;28;20190;-93
2022/05/13 02:35:59;;;;;;;6.97;5.77;;;;;;;14.22;69.13;97389.44;5114388;28;20187;-91
2022/05/13 02:38:27;;;;;;;7.30;6.30;;;;;;;14.22;69.14;97381.63;5122289;27;20175;-84
2022/05/13 02:41:13;;;;;;;7.53;6.73;;;;;;;14.22;68.83;97380.81;5119775;28;20218;-91
2022/05/13 02:43:53;;;;;;;7.60;6.83;;;;;;;14.09;69.33;97382.41;5132638;28;20188;-91
2022/05/13 02:46:28;;;;;;;6.73;6.07;;;;;;;13.58;71.33;97366.03;5136367;28;20242;-84
2022/05/13 02:48:56;;;;;;;8.10;6.13;;;;;;;13.33;72.01;97355.22;5121886;27;20183;-84
2022/05/13 02:51:23;;;;;;;10.37;6.97;;;;;;;13.34;72.11;97374.25;5124054;28;20247;-88
2022/05/13 02:53:51;;;;;;;10.13;7.80;;;;;;;13.15;73.23;97363.13;5125304;28;20186;-87
2022/05/13 02:56:19;;;;;;;7.53;6.77;;;;;;;13.04;73.89;97387.88;5135353;28;20240;-90
2022/05/13 02:58:47;;;;;;;7.47;6.77;;;;;;;12.99;74.26;97383.81;5130309;28;20185;-87
2022/05/13 03:01:18;;;;;;;7.87;6.73;;;;;;;12.92;74.15;97391.06;5126437;28;20220;-94
2022/05/13 03:03:48;;;;;;;7.90;6.67;;;;;;;13.10;73.97;97393.72;5116081;28;20199;-89
2022/05/13 03:06:17;;;;;;;7.30;6.47;;;;;;;13.19;74.42;97399.28;5123987;28;20185;-89
2022/05/13 03:08:44;;;;;;;7.40;6.13;;;;;;;12.81;74.34;97338.78;5093538;28;20265;-88
2022/05/13 03:11:11;;;;;;;7.60;6.23;;;;;;;13.21;74.75;97400.03;5130388;28;20187;-85
2022/05/13 03:13:39;;;;;;;11.47;7.43;;;;;;;13.14;74.92;97374.44;5108488;28;20190;-90
2022/05/13 03:16:14;;;;;;;7.47;6.10;;;;;;;13.44;74.45;97404.06;5123870;28;20190;-86
2022/05/13 03:18:41;;;;;;;7.83;6.50;;;;;;;13.35;74.06;97369.00;5116430;28;20195;-96
2022/05/13 03:21:09;;;;;;;9.10;6.17;;;;;;;13.64;72.99;97380.50;5097386;28;20241;-91
2022/05/13 03:23:38;;;;;;;9.47;6.20;;;;;;;14.07;72.16;97411.16;5116771;28;20237;-95
2022/05/13 03:26:06;;;;;;;9.57;6.63;;;;;;;13.89;71.63;97375.66;5115637;28;20563;-88
2022/05/13 03:28:36;;;;;;;8.40;6.63;;;;;;;14.04;71.40;97379.19;5091061;28;20195;-90
2022/05/13 03:31:03;;;;;;;7.20;6.50;;;;;;;14.71;69.82;97402.41;5111824;28;20677;-84
2022/05/13 03:33:30;;;;;;;9.10;6.70;;;;;;;14.95;67.52;97380.16;5114870;28;20263;-84
2022/05/13 03:35:58;;;;;;;8.47;6.07;;;;;;;15.59;65.68;97404.19;5120227;28;20217;-86
2022/05/13 03:38:25;;;;;;;10.67;6.30;;;;;;;16.07;63.84;97421.28;5126617;28;20215;-88
2022/05/13 03:40:52;;;;;;;9.27;6.83;;;;;;;16.05;63.33;97408.28;5113927;28;20176;-91
2022/05/13 03:43:19;;;;;;;8.83;6.60;;;;;;;16.16;62.07;97395.41;5111960;28;20192;-91
2022/05/13 03:45:49;;;;;;;9.23;6.73;;;;;;;16.51;60.90;97400.22;5112062;28;20185;-92
2022/05/13 03:48:16;;;;;;;8.70;6.10;;;;;;;16.52;60.69;97400.13;5093193;28;20189;-86
2022/05/13 03:50:45;;;;;;;10.57;6.20;;;;;;;16.52;61.23;97430.66;5097262;28;20193;-91
2022/05/13 03:53:12;;;;;;;11.60;6.37;;;;;;;16.44;60.50;97422.44;5129334;28;20200;-88
2022/05/13 03:55:41;;;;;;;9.93;6.17;;;;;;;16.64;60.30;97427.28;5135034;28;20184;-85
2022/05/13 03:58:09;;;;;;;10.77;6.50;;;;;;;16.60;60.13;97426.63;5132997;28;20217;-86
2022/05/13 04:00:38;;;;;;;9.93;6.70;;;;;;;16.78;59.70;97441.16;5134812;28;20181;-85
2022/05/13 04:03:07;;;;;;;9.80;6.33;;;;;;;16.88;59.58;97437.00;5123385;28;20696;-87
2022/05/13 04:11:08;;;;;;;11.30;7.00;;;;;;;17.26;56.52;97399.63;5114085;28;20578;-87
2022/05/13 04:16:21;;;;;;;11.47;6.73;;;;;;;16.86;58.68;97432.78;5117413;28;20844;-93
2022/05/13 04:18:51;;;;;;;10.90;6.90;;;;;;;16.99;58.57;97441.53;5125487;28;20185;-86
2022/05/13 04:21:27;;;;;;;15.40;7.90;;;;;;;17.07;58.48;97452.34;5093627;28;20227;-89
2022/05/13 04:23:58;;;;;;;10.67;7.20;;;;;;;16.97;58.54;97452.13;5120821;28;20232;-94
2022/05/13 04:26:26;;;;;;;8.30;6.63;;;;;;;16.52;59.50;97407.97;5115225;28;20664;-96
2022/05/13 04:28:55;;;;;;;10.40;7.80;;;;;;;17.02;59.07;97451.81;5112783;28;20342;-92
2022/05/13 04:31:29;;;;;;;9.57;6.43;;;;;;;17.15;59.15;97439.59;5115056;28;20190;-92
2022/05/13 04:34:00;;;;;;;8.30;6.30;;;;;;;17.04;59.35;97449.94;5112904;28;20670;-93
2022/05/13 04:36:28;;;;;;;8.90;5.90;;;;;;;16.82;59.77;97426.09;5127749;28;20680;-91
2022/05/13 04:38:56;;;;;;;10.57;6.50;;;;;;;16.90;60.28;97456.06;5110847;28;20194;-89
2022/05/13 04:44:14;;;;;;;8.57;6.50;;;;;;;16.31;62.36;97458.94;5086729;28;20185;-88
2022/05/13 04:46:43;;;;;;;8.37;6.07;;;;;;;16.27;62.60;97445.25;5100546;28;20274;-92
2022/05/13 04:49:12;;;;;;;13.80;6.70;;;;;;;16.40;62.73;97437.47;5113982;28;20252;-95
2022/05/13 04:51:39;;;;;;;8.90;7.03;;;;;;;16.47;61.95;97424.84;5117991;28;20191;-91
2022/05/13 04:54:07;;;;;;;10.50;6.53;;;;;;;16.93;61.12;97444.56;5124616;28;20192;-89
2022/05/13 04:56:36;;;;;;;7.23;6.00;;;;;;;17.03;60.94;97461.34;5112648;28;20242;-88
2022/05/13 04:59:04;;;;;;;10.17;6.57;;;;;;;16.85;61.80;97446.84;5110059;28;20191;-87
2022/05/13 05:01:36;;;;;;;8.20;6.40;;;;;;;16.67;62.28;97435.75;5100175;28;20230;-84
2022/05/13 05:04:29;;;;;;;9.60;7.00;;;;;;;16.86;62.81;97467.66;5117752;28;20206;-86
2022/05/13 05:07:14;;;;;;;10.20;7.07;;;;;;;17.26;61.71;97462.47;5107928;28;20623;-86
2022/05/13 05:09:52;;;;;;;7.00;5.77;;;;;;;17.47;59.71;97393.81;5094887;28;20521;-91
2022/05/13 05:12:21;;;;;;;11.87;5.80;;;;;;;17.91;59.09;97398.63;5130933;28;20189;-90
2022/05/13 05:14:50;;;;;;;6.63;5.33;;;;;;;18.53;57.52;97458.03;5110131;28;20195;-86
2022/05/13 05:17:17;;;;;;;19.87;7.00;;;;;;;18.60;56.69;97424.34;5128910;28;20229;-89
2022/05/13 05:19:45;;;;;;;6.73;5.20;;;;;;;18.74;56.48;97442.56;5107873;28;20209;-88
2022/05/13 05:22:12;;;;;;;8.23;4.87;;;;;;;18.95;56.54;97456.78;5117118;27;20247;-88
2022/05/13 05:24:39;;;;;;;6.33;4.83;;;;;;;18.50;57.31;97444.31;5133985;27;20213;-86
2022/05/13 05:27:09;;;;;;;8.53;5.20;;;;;;;18.37;58.31;97472.31;5133655;27;20228;-89
2022/05/13 05:29:37;;;;;;;8.93;5.30;;;;;;;18.34;58.20;97443.69;5118200;28;20663;-96
2022/05/13 05:32:08;;;;;;;7.33;5.23;;;;;;;18.49;57.51;97468.84;5099034;28;20277;-94
2022/05/13 05:34:42;;;;;;;7.47;6.40;;;;;;;18.58;57.58;97473.47;5102517;28;20193;-93
2022/05/13 05:37:10;;;;;;;10.00;5.50;;;;;;;19.01;56.11;97464.19;5123627;28;20223;-84
2022/05/13 05:39:37;;;;;;;7.60;5.80;;;;;;;19.40;55.70;97468.34;5119783;28;20182;-89
2022/05/13 05:42:09;;;;;;;7.97;6.47;;;;;;;19.68;54.54;97472.38;5115446;28;20199;-91
2022/05/13 05:44:38;;;;;;;8.23;5.90;;;;;;;19.44;55.15;97457.50;5103672;28;20190;-89
2022/05/13 05:47:06;;;;;;;5.53;4.93;;;;;;;19.25;55.95;97467.66;5114736;28;20196;-89
2022/05/13 05:49:34;;;;;;;6.57;4.80;;;;;;;19.41;55.39;97464.78;5087786;28;20268;-91
2022/05/13 05:52:01;;;;;;;9.27;5.43;;;;;;;19.96;54.77;97456.19;5087193;28;20212;-93
2022/05/13 05:57:22;;;;;;;6.53;5.60;;;;;;;19.63;55.04;97450.84;5103413;28;20317;-90
2022/05/13 05:59:51;;;;;;;7.93;6.23;;;;;;;19.78;55.23;97461.06;5119287;28;20184;-89
2022/05/13 06:02:19;;;;;;;6.60;5.87;;;;;;;19.75;55.18;97463.06;5102306;28;20195;-88
2022/05/13 06:04:47;;;;;;;6.80;6.10;;;;;;;19.63;54.60;97391.25;5117341;28;20180;-88
2022/05/13 06:07:16;;;;;;;8.00;6.53;;;;;;;19.98;53.18;97406.94;5084321;28;20192;-95
2022/05/13 06:09:49;;;;;;;9.53;8.37;;;;;;;20.34;52.78;97359.38;5100935;28;20213;-91
2022/05/13 06:12:20;;;;;;;9.13;6.53;;;;;;;20.87;51.81;97431.41;5105538;28;20255;-93
2022/05/13 06:14:50;;;;;;;8.57;6.80;;;;;;;21.35;50.44;97434.50;5105547;28;20200;-91
2022/05/13 06:17:19;;;;;;;16.30;8.27;;;;;;;21.73;49.64;97427.72;5127284;28;20286;-94
2022/05/13 06:20:12;;;;;;;14.27;6.37;;;;;;;22.21;49.02;97454.41;5117123;28;20193;-87
2022/05/13 06:22:42;;;;;;;10.23;7.80;;;;;;;22.20;48.12;97443.94;5108469;28;20238;-87
2022/05/13 06:25:13;;;;;;;10.87;6.43;;;;;;;22.08;47.58;97414.19;5126774;28;20186;-94
2022/05/13 06:27:41;;;;;;;11.17;6.63;;;;;;;21.91;49.42;97449.06;5124168;28;20222;-88
2022/05/13 06:30:12;;;;;;;9.57;7.40;;;;;;;21.93;48.51;97406.78;5084470;28;20200;-91
2022/05/13 06:32:43;;;;;;;8.80;5.57;;;;;;;22.53;47.32;97423.41;5106393;28;20217;-94
2022/05/13 06:35:14;;;;;;;13.60;6.37;;;;;;;22.53;47.41;97409.34;5107149;28;20638;-86
2022/05/13 06:37:43;;;;;;;16.23;6.90;;;;;;;22.84;46.03;97439.19;5111615;28;20286;-86
2022/05/13 06:40:11;;;;;;;11.73;5.87;;;;;;;22.39;46.86;97407.94;5134197;28;20186;-92
2022/05/13 06:42:40;;;;;;;10.43;7.60;;;;;;;22.57;46.35;97416.03;5126634;28;20180;-89
2022/05/13 06:45:10;;;;;;;12.77;9.13;;;;;;;23.01;45.73;97430.63;5092790;28;20282;-95
2022/05/13 06:47:39;;;;;;;11.97;7.00;;;;;;;23.30;45.64;97434.97;5113120;28;20190;-86
2022/05/13 06:50:11;;;;;;;6.90;5.53;;;;;;;23.23;44.60;97438.28;5131061;28;20259;-90
2022/05/13 06:52:40;;;;;;;9.77;6.00;;;;;;;23.05;44.97;97417.00;5117857;28;20240;-89
2022/05/13 06:55:09;;;;;;;10.63;5.77;;;;;;;22.72;47.61;97427.09;5136379;27;20261;-93
2022/05/13 06:57:37;;;;;;;11.77;6.33;;;;;;;22.75;46.68;97387.22;5116991;28;20223;-86
2022/05/13 07:00:13;;;;;;;12.97;6.23;;;;;;;23.14;45.67;97428.56;5100523;28;20172;-86
2022/05/13 07:02:46;;;;;;;11.13;5.80;;;;;;;22.72;46.47;97416.53;5117086;27;20179;-88
2022/05/13 07:05:23;;;;;;;9.30;5.67;;;;;;;22.99;46.22;97395.59;5118552;28;20188;-88
2022/05/13 07:07:50;;;;;;;9.37;5.70;;;;;;;23.19;44.99;97423.69;5133963;28;20184;-91
2022/05/13 07:10:18;;;;;;;12.43;7.23;;;;;;;22.83;45.96;97385.56;5100631;27;20184;-89
2022/05/13 07:12:45;;;;;;;9.10;6.40;;;;;;;22.98;45.65;97388.66;5099044;28;20642;-91
2022/05/13 07:15:18;;;;;;;16.57;7.47;;;;;;;23.32;45.79;97417.19;5130287;28;20308;-87
2022/05/13 07:17:45;;;;;;;8.37;5.33;;;;;;;23.24;45.10;97379.19;5118368;28;20224;-85
2022/05/13 07:20:14;;;;;;;9.50;5.70;;;;;;;23.47;44.66;97392.97;5117811;28;20185;-88
2022/05/13 07:22:46;;;;;;;10.37;6.57;;;;;;;23.61;44.65;97393.38;5084568;28;20579;-86
2022/05/13 07:25:14;;;;;;;10.27;6.30;;;;;;;23.61;45.13;97388.06;5117713;28;20245;-87
2022/05/13 07:27:43;;;;;;;7.37;5.63;;;;;;;23.62;45.82;97420.66;5101594;28;20194;-86
2022/05/13 07:30:17;;;;;;;9.13;5.93;;;;;;;23.45;45.18;97387.84;5103778;28;20237;-85
2022/05/13 07:32:45;;;;;;;6.93;6.03;;;;;;;23.57;45.79;97410.50;5102604;28;20608;-85
2022/05/13 07:35:12;;;;;;;9.40;6.07;;;;;;;23.07;46.04;97332.31;5120632;28;20190;-86
2022/05/13 07:37:42;;;;;;;9.47;6.30;;;;;;;23.24;45.88;97389.75;5101779;28;20313;-86
2022/05/13 07:43:00;;;;;;;9.43;5.80;;;;;;;22.84;47.86;97411.00;5120676;28;20308;-85
2022/05/13 07:45:36;;;;;;;7.23;5.73;;;;;;;22.79;47.82;97399.19;5099793;28;20222;-84
2022/05/13 07:48:05;;;;;;;11.23;5.60;;;;;;;22.64;47.35;97369.69;5108342;28;20192;-84
2022/05/13 07:50:32;;;;;;;12.03;6.10;;;;;;;22.97;48.11;97393.09;5118833;28;20216;-86
2022/05/13 07:53:02;;;;;;;7.67;6.00;;;;;;;22.46;47.71;97311.38;5120316;28;20490;-88
2022/05/13 07:55:31;;;;;;;15.60;12.73;;;;;;;23.30;47.32;97397.97;5119837;28;20200;-87
2022/05/13 07:58:04;;;;;;;11.27;6.20;;;;;;;23.41;46.51;97397.84;5097067;28;20250;-87
2022/05/13 08:00:33;;;;;;;8.03;5.10;;;;;;;23.65;45.58;97392.09;5098274;28;20209;-87
2022/05/13 08:03:11;;;;;;;9.90;5.83;;;;;;;23.91;44.83;97395.78;5118093;28;20189;-84
2022/05/13 08:05:45;;;;;;;10.20;5.37;;;;;;;23.75;44.99;97395.56;5095792;28;20210;-86
2022/05/13 08:08:16;;;;;;;6.90;5.10;;;;;;;23.72;45.57;97395.03;5080583;28;20203;-88
2022/05/13 08:10:52;;;;;;;6.47;5.40;;;;;;;23.99;45.03;97393.25;5099035;28;20214;-87
2022/05/13 08:13:28;;;;;;;7.17;5.43;;;;;;;23.88;45.48;97401.38;5115762;28;20271;-86
2022/05/13 08:15:55;;;;;;;9.23;5.20;;;;;;;23.71;45.56;97398.63;5080498;28;20189;-84
2022/05/13 08:18:22;;;;;;;7.93;4.90;;;;;;;23.54;45.25;97371.09;5096756;28;20706;-87
2022/05/13 08:21:15;;;;;;;7.93;5.17;;;;;;;23.94;45.23;97384.94;5103555;28;20173;-87
2022/05/13 08:23:44;;;;;;;8.10;5.73;;;;;;;23.96;45.04;97366.25;5097326;28;20225;-85
2022/05/13 08:26:13;;;;;;;8.93;5.50;;;;;;;24.13;43.57;97374.28;5078635;28;20606;-88
2022/05/13 08:28:42;;;;;;;5.87;4.80;;;;;;;24.30;43.42;97383.28;5114195;28;20240;-86
2022/05/13 08:31:17;;;;;;;6.67;5.90;;;;;;;24.57;43.70;97393.03;5113289;28;20190;-86
2022/05/13 08:33:45;;;;;;;5.77;5.20;;;;;;;24.30;44.06;97369.22;5115268;28;20769;-85
2022/05/13 08:36:16;;;;;;;9.17;5.10;;;;;;;24.24;43.21;97352.94;5115670;28;20190;-84
2022/05/13 08:38:45;;;;;;;7.87;5.23;;;;;;;24.19;42.56;97360.47;5098876;28;20246;-85
2022/05/13 08:44:56;;;;;;;6.40;4.43;;;;;;;24.51;41.49;97383.88;5116966;28;20611;-85
2022/05/13 08:47:50;;;;;;;7.43;5.60;;;;;;;24.63;42.14;97353.56;5103289;28;20284;-86
2022/05/13 08:50:37;;;;;;;8.17;4.90;;;;;;;24.95;41.46;97377.78;5113269;28;20221;-88
2022/05/13 08:53:16;;;;;;;8.60;5.10;;;;;;;25.08;40.76;97350.88;5108273;28;20207;-89
2022/05/13 08:55:48;;;;;;;8.27;4.70;;;;;;;24.84;41.33;97370.03;5114224;28;20199;-85
2022/05/13 08:58:38;;;;;;;6.83;5.43;;;;;;;24.59;42.60;97354.00;5133656;27;20242;-87
2022/05/13 09:01:13;;;;;;;8.07;5.87;;;;;;;24.50;41.96;97357.56;5127217;28;20224;-86
2022/05/13 09:03:59;;;;;;;7.20;5.07;;;;;;;24.58;42.98;97363.78;5097426;28;20199;-84
2022/05/13 09:06:42;;;;;;;10.03;4.90;;;;;;;24.61;41.80;97328.19;5096988;28;20239;-85
2022/05/13 09:09:16;;;;;;;9.97;5.03;;;;;;;24.81;42.01;97359.72;5098110;28;20180;-84
2022/05/13 09:11:55;;;;;;;5.57;4.17;;;;;;;24.69;41.00;97345.00;5104765;28;20206;-86
2022/05/13 09:15:16;;;;;;;8.53;4.20;;;;;;;24.55;39.71;97350.81;5096866;28;20243;-88
2022/05/13 09:18:03;;;;;;;5.13;3.93;;;;;;;24.68;36.55;97353.94;5095831;28;20306;-86
2022/05/13 09:29:45;;;;;;;5.07;4.10;;;;;;;24.81;38.67;97274.13;5037151;28;20265;-85
2022/05/13 09:32:26;;;;;;;4.43;4.03;;;;;;;24.94;39.00;97343.47;5002088;28;20275;-85
2022/05/13 09:34:58;;;;;;;4.93;4.03;;;;;;;25.04;38.94;97315.91;5022472;28;20196;-84
2022/05/13 09:37:35;;;;;;;5.33;4.37;;;;;;;25.07;39.19;97296.22;5020502;28;20202;-85
2022/05/13 09:40:16;;;;;;;4.93;4.43;;;;;;;25.04;39.85;97291.19;5044723;28;20199;-85
2022/05/13 09:43:02;;;;;;;4.87;3.93;;;;;;;25.46;39.58;97312.59;5028995;28;20298;-86
2022/05/13 09:45:33;;;;;;;7.73;5.33;;;;;;;25.68;39.36;97318.22;5042367;28;20291;-85
2022/05/13 09:48:06;;;;;;;6.63;4.47;;;;;;;25.91;39.16;97312.38;5042658;28;20209;-84
2022/05/13 09:50:50;;;;;;;4.93;4.00;;;;;;;25.52;38.68;97270.38;5040466;28;20268;-84
2022/05/13 09:53:22;;;;;;;5.37;4.30;;;;;;;25.55;39.43;97301.06;5036060;28;20190;-84
2022/05/13 09:55:55;;;;;;;4.57;4.10;;;;;;;25.15;39.00;97280.38;5018704;28;20206;-85
2022/05/13 09:58:34;;;;;;;7.10;4.70;;;;;;;25.26;39.95;97298.69;5020104;28;20230;-85
2022/05/13 10:01:10;;;;;;;5.03;4.20;;;;;;;25.11;39.72;97273.72;5036360;28;20198;-85
2022/05/13 10:03:39;;;;;;;6.07;4.10;;;;;;;25.34;39.67;97276.69;5100983;28;20276;-84
2022/05/13 10:06:11;;;;;;;6.87;5.17;;;;;;;25.27;39.71;97305.63;5101746;28;20271;-85
2022/05/13 10:15:10;;;;;;;5.67;4.47;;;;;;;25.44;37.75;97272.97;5127862;28;20209;-85
2022/05/13 10:17:48;;;;;;;6.10;4.33;;;;;;;25.75;37.61;97271.50;5121843;28;20183;-86
2022/05/13 10:20:40;;;;;;;5.93;4.20;;;;;;;25.24;38.10;97268.84;5088082;28;20666;-86
2022/05/13 10:23:25;;;;;;;8.90;4.70;;;;;;;25.54;36.43;97283.47;5102379;28;20257;-87
2022/05/13 10:25:59;;;;;;;6.30;4.20;;;;;;;25.44;39.00;97274.78;5119792;28;20656;-85
2022/05/13 10:28:49;;;;;;;6.97;4.37;;;;;;;25.05;40.35;97258.44;5119889;28;20207;-85
2022/05/13 10:31:22;;;;;;;7.13;4.87;;;;;;;25.41;39.05;97267.97;5091634;28;20234;-85
2022/05/13 10:33:59;;;;;;;8.33;5.07;;;;;;;25.60;39.68;97257.16;5100394;28;20608;-85
2022/05/13 10:36:51;;;;;;;6.43;4.73;;;;;;;25.72;38.13;97274.47;5120449;28;20198;-84
2022/05/13 10:39:28;;;;;;;7.00;4.60;;;;;;;25.68;38.04;97229.81;5118379;28;20226;-84
2022/05/13 10:41:59;;;;;;;6.90;4.13;;;;;;;25.90;37.81;97239.91;5121363;28;20185;-86
2022/05/13 10:44:55;;;;;;;6.27;4.80;;;;;;;26.22;37.10;97249.81;5120525;28;21062;-87
2022/05/13 10:47:41;;;;;;;7.77;4.53;;;;;;;26.29;36.81;97256.16;5105511;28;20190;-86
2022/05/13 10:50:43;;;;;;;5.03;4.20;;;;;;;26.04;37.44;97244.59;5102679;28;20233;-85
2022/05/13 10:53:13;;;;;;;12.77;5.20;;;;;;;26.45;36.90;97246.38;5103434;28;20199;-85
2022/05/13 10:55:49;;;;;;;8.00;5.00;;;;;;;26.64;36.42;97247.91;5105706;28;20188;-87
2022/05/13 10:58:30;;;;;;;6.37;4.03;;;;;;;26.52;36.44;97244.72;5106389;28;20226;-85
2022/05/13 11:01:26;;;;;;;4.83;4.33;;;;;;;26.69;35.85;97234.94;5126290;28;20183;-86
2022/05/13 11:04:11;;;;;;;6.30;4.37;;;;;;;26.46;35.27;97183.47;5100687;28;20596;-85
2022/05/13 11:07:07;;;;;;;4.63;3.87;;;;;;;26.15;34.50;97217.75;5117332;28;20218;-84
2022/05/13 11:09:51;;;;;;;7.43;4.10;;;;;;;26.02;34.63;97209.41;5118008;28;20742;-84
2022/05/13 11:12:41;;;;;;;6.23;4.10;;;;;;;26.29;34.99;97211.00;5116677;28;20258;-86
2022/05/13 11:15:36;;;;;;;4.87;4.30;;;;;;;26.54;35.33;97223.31;5102348;28;20196;-85
2022/05/13 11:18:11;;;;;;;4.70;4.00;;;;;;;26.67;34.36;97218.34;5117858;28;20198;-85
2022/05/13 11:20:45;;;;;;;6.80;4.10;;;;;;;26.92;34.38;97213.88;5118793;28;20287;-85
2022/05/13 11:25:54;;;;;;;6.37;3.90;;;;;;;27.02;34.08;97201.25;5117884;28;20288;-85
2022/05/13 11:27:08;;;;;;;4.53;3.87;;;;;;;27.02;33.85;97194.09;5101476;28;20207;-85
2022/05/13 11:29:56;;;;;;;4.90;3.47;;;;;;;26.49;34.29;97207.88;5021584;28;20298;-87
2022/05/13 11:32:40;;;;;;;4.03;3.63;;;;;;;26.26;34.73;97177.63;5080058;28;20598;-86
2022/05/13 11:35:55;;;;;;;7.47;4.43;;;;;;;26.48;34.41;97162.88;5102001;28;20264;-85
2022/05/13 11:38:30;;;;;;;3.90;3.60;;;;;;;26.61;34.46;97189.78;5100538;28;20286;-85
2022/05/13 11:41:06;;;;;;;6.17;4.33;;;;;;;26.98;34.61;97182.16;5125900;28;20221;-85
2022/05/13 11:43:59;;;;;;;5.20;3.80;;;;;;;26.72;33.91;97189.47;5124185;28;20255;-85
2022/05/13 11:46:53;;;;;;;6.23;3.70;;;;;;;26.87;33.51;97187.81;5118650;28;20651;-84
2022/05/13 11:49:36;;;;;;;6.17;3.90;;;;;;;26.74;34.61;97186.66;5118592;28;20196;-83
2022/05/13 11:52:14;;;;;;;6.37;4.03;;;;;;;26.95;34.31;97173.69;5118500;28;20194;-84
2022/05/13 11:54:44;;;;;;;4.93;4.30;;;;;;;26.81;34.56;97156.56;5118852;28;20180;-85
2022/05/13 11:57:39;;;;;;;6.00;3.80;;;;;;;26.72;33.68;97117.72;5117530;28;20188;-84
2022/05/13 12:00:38;;;;;;;5.07;4.07;;;;;;;27.30;33.12;97160.81;5132759;27;20211;-85
2022/05/13 12:03:08;;;;;;;5.90;4.23;;;;;;;27.39;33.96;97164.28;5134320;27;20176;-86
2022/05/13 12:06:04;;;;;;;8.10;4.60;;;;;;;27.39;33.55;97159.81;5116512;28;20202;-84
2022/05/13 12:08:42;;;;;;;6.30;3.67;;;;;;;27.09;33.69;97163.19;5116012;28;20222;-85
2022/05/13 12:11:34;;;;;;;6.93;4.03;;;;;;;27.10;33.88;97150.75;5116769;28;20232;-88
2022/05/13 12:14:27;;;;;;;9.03;4.83;;;;;;;26.95;33.69;97113.38;5125832;28;20184;-86
2022/05/13 12:17:09;;;;;;;4.90;3.63;;;;;;;27.29;32.80;97148.50;5129220;28;20199;-86
2022/05/13 12:19:57;;;;;;;6.53;4.03;;;;;;;27.19;32.97;97136.41;5123942;28;20222;-86
2022/05/13 12:22:34;;;;;;;5.13;4.10;;;;;;;27.15;33.95;97132.44;5089656;28;20200;-86
2022/05/13 12:25:09;;;;;;;5.10;3.53;;;;;;;26.65;34.86;97137.16;5127480;28;20179;-86
2022/05/13 12:28:05;;;;;;;4.57;3.97;;;;;;;26.63;34.81;97121.34;5103739;28;20550;-85
2022/05/13 12:30:36;;;;;;;5.93;3.80;;;;;;;26.41;35.19;97122.03;5123308;28;20191;-85
2022/05/13 12:33:23;;;;;;;4.10;3.70;;;;;;;26.39;35.88;97110.75;5087656;28;20188;-86
2022/05/13 12:39:21;;;;;;;4.23;3.40;;;;;;;26.59;35.31;97104.91;5119866;28;20738;-85
2022/05/13 12:42:10;;;;;;;6.47;4.20;;;;;;;26.81;34.37;97098.09;5083374;28;20286;-85